sensor_id;sensor_type;location;lat;lon;timestamp;pressure;altitude;pressure_sealevel;temperature
61703;BMP280;47622;47.726;3.298;2024-03-22T00:01:55;99845.34;;;11.43
61703;BMP280;47622;47.726;3.298;2024-03-22T00:04:22;99848.91;;;11.52
61703;BMP280;47622;47.726;3.298;2024-03-22T00:06:48;99852.59;;;11.51
61703;BMP280;47622;47.726;3.298;2024-03-22T00:09:15;99817.72;;;11.32
61703;BMP280;47622;47.726;3.298;2024-03-22T00:11:42;99835.38;;;11.45
61703;BMP280;47622;47.726;3.298;2024-03-22T00:14:08;99840.09;;;11.43
61703;BMP280;47622;47.726;3.298;2024-03-22T00:16:34;99827.63;;;11.35
61703;BMP280;47622;47.726;3.298;2024-03-22T00:19:00;99822.97;;;11.32
61703;BMP280;47622;47.726;3.298;2024-03-22T00:21:25;99806.22;;;11.28
61703;BMP280;47622;47.726;3.298;2024-03-22T00:23:51;99816.06;;;11.36
61703;BMP280;47622;47.726;3.298;2024-03-22T00:26:17;99798.78;;;11.16
61703;BMP280;47622;47.726;3.298;2024-03-22T00:28:42;99816.16;;;11.31
61703;BMP280;47622;47.726;3.298;2024-03-22T00:31:08;99829.19;;;11.36
61703;BMP280;47622;47.726;3.298;2024-03-22T00:33:34;99816.03;;;11.22
61703;BMP280;47622;47.726;3.298;2024-03-22T00:36:00;99810.56;;;11.19
61703;BMP280;47622;47.726;3.298;2024-03-22T00:38:26;99819.00;;;11.35
61703;BMP280;47622;47.726;3.298;2024-03-22T00:40:51;99808.94;;;11.23
61703;BMP280;47622;47.726;3.298;2024-03-22T00:43:17;99811.41;;;11.14
61703;BMP280;47622;47.726;3.298;2024-03-22T00:45:43;99820.63;;;11.12
61703;BMP280;47622;47.726;3.298;2024-03-22T00:48:09;99824.53;;;11.14
61703;BMP280;47622;47.726;3.298;2024-03-22T00:50:34;99794.75;;;10.86
61703;BMP280;47622;47.726;3.298;2024-03-22T00:53:00;99815.59;;;10.96
61703;BMP280;47622;47.726;3.298;2024-03-22T00:55:28;99815.03;;;11.00
61703;BMP280;47622;47.726;3.298;2024-03-22T00:57:54;99815.03;;;11.00
61703;BMP280;47622;47.726;3.298;2024-03-22T01:00:19;99796.75;;;10.94
61703;BMP280;47622;47.726;3.298;2024-03-22T01:02:45;99798.75;;;11.03
61703;BMP280;47622;47.726;3.298;2024-03-22T01:05:10;99791.41;;;11.00
61703;BMP280;47622;47.726;3.298;2024-03-22T01:07:36;99799.38;;;10.94
61703;BMP280;47622;47.726;3.298;2024-03-22T01:10:03;99793.53;;;10.98
61703;BMP280;47622;47.726;3.298;2024-03-22T01:12:30;99795.59;;;11.01
61703;BMP280;47622;47.726;3.298;2024-03-22T01:14:56;99800.84;;;11.01
61703;BMP280;47622;47.726;3.298;2024-03-22T01:17:22;99800.44;;;10.93
61703;BMP280;47622;47.726;3.298;2024-03-22T01:19:48;99797.44;;;10.81
61703;BMP280;47622;47.726;3.298;2024-03-22T01:22:13;99807.94;;;10.81
61703;BMP280;47622;47.726;3.298;2024-03-22T01:24:39;99788.97;;;10.65
61703;BMP280;47622;47.726;3.298;2024-03-22T01:27:05;99777.88;;;10.55
61703;BMP280;47622;47.726;3.298;2024-03-22T01:29:30;99769.31;;;10.44
61703;BMP280;47622;47.726;3.298;2024-03-22T01:31:59;99796.75;;;10.52
61703;BMP280;47622;47.726;3.298;2024-03-22T01:34:25;99782.19;;;10.41
61703;BMP280;47622;47.726;3.298;2024-03-22T01:36:51;99796.63;;;10.43
61703;BMP280;47622;47.726;3.298;2024-03-22T01:39:18;99787.25;;;10.32
61703;BMP280;47622;47.726;3.298;2024-03-22T01:41:49;99783.41;;;10.29
61703;BMP280;47622;47.726;3.298;2024-03-22T01:44:15;99782.63;;;10.29
61703;BMP280;47622;47.726;3.298;2024-03-22T01:46:41;99780.28;;;10.27
61703;BMP280;47622;47.726;3.298;2024-03-22T01:49:12;99783.44;;;10.24
61703;BMP280;47622;47.726;3.298;2024-03-22T01:51:41;99757.75;;;10.02
61703;BMP280;47622;47.726;3.298;2024-03-22T01:54:08;99753.31;;;9.98
61703;BMP280;47622;47.726;3.298;2024-03-22T01:56:38;99761.50;;;9.91
61703;BMP280;47622;47.726;3.298;2024-03-22T01:59:05;99765.50;;;9.84
61703;BMP280;47622;47.726;3.298;2024-03-22T02:01:33;99761.56;;;9.86
61703;BMP280;47622;47.726;3.298;2024-03-22T02:03:59;99765.00;;;9.82
61703;BMP280;47622;47.726;3.298;2024-03-22T02:06:25;99747.38;;;9.63
61703;BMP280;47622;47.726;3.298;2024-03-22T02:08:50;99764.56;;;9.74
61703;BMP280;47622;47.726;3.298;2024-03-22T02:11:16;99753.44;;;9.59
61703;BMP280;47622;47.726;3.298;2024-03-22T02:13:41;99742.78;;;9.50
61703;BMP280;47622;47.726;3.298;2024-03-22T02:16:08;99751.69;;;9.49
61703;BMP280;47622;47.726;3.298;2024-03-22T02:18:33;99761.72;;;9.42
61703;BMP280;47622;47.726;3.298;2024-03-22T02:20:59;99764.31;;;9.42
61703;BMP280;47622;47.726;3.298;2024-03-22T02:23:35;99739.81;;;9.28
61703;BMP280;47622;47.726;3.298;2024-03-22T02:26:02;99767.91;;;9.46
61703;BMP280;47622;47.726;3.298;2024-03-22T02:28:28;99754.72;;;9.32
61703;BMP280;47622;47.726;3.298;2024-03-22T02:30:54;99720.13;;;9.01
61703;BMP280;47622;47.726;3.298;2024-03-22T02:33:20;99743.47;;;9.27
61703;BMP280;47622;47.726;3.298;2024-03-22T02:35:49;99731.41;;;9.31
61703;BMP280;47622;47.726;3.298;2024-03-22T02:38:15;99708.53;;;9.12
61703;BMP280;47622;47.726;3.298;2024-03-22T02:40:43;99713.50;;;9.14
61703;BMP280;47622;47.726;3.298;2024-03-22T02:43:09;99725.41;;;9.25
61703;BMP280;47622;47.726;3.298;2024-03-22T02:45:35;99716.91;;;9.09
61703;BMP280;47622;47.726;3.298;2024-03-22T02:48:00;99718.56;;;8.95
61703;BMP280;47622;47.726;3.298;2024-03-22T02:50:26;99728.91;;;9.15
61703;BMP280;47622;47.726;3.298;2024-03-22T02:52:51;99733.63;;;9.13
61703;BMP280;47622;47.726;3.298;2024-03-22T02:55:17;99719.06;;;8.97
61703;BMP280;47622;47.726;3.298;2024-03-22T02:57:43;99710.50;;;8.92
61703;BMP280;47622;47.726;3.298;2024-03-22T03:00:09;99707.09;;;8.91
61703;BMP280;47622;47.726;3.298;2024-03-22T03:02:35;99720.63;;;9.03
61703;BMP280;47622;47.726;3.298;2024-03-22T03:05:00;99719.06;;;8.97
61703;BMP280;47622;47.726;3.298;2024-03-22T03:07:26;99706.03;;;8.92
61703;BMP280;47622;47.726;3.298;2024-03-22T03:09:53;99696.97;;;8.84
61703;BMP280;47622;47.726;3.298;2024-03-22T03:12:18;99689.34;;;8.83
61703;BMP280;47622;47.726;3.298;2024-03-22T03:14:44;99679.94;;;8.82
61703;BMP280;47622;47.726;3.298;2024-03-22T03:17:09;99694.53;;;8.88
61703;BMP280;47622;47.726;3.298;2024-03-22T03:19:36;99696.19;;;8.79
61703;BMP280;47622;47.726;3.298;2024-03-22T03:22:01;99691.78;;;8.74
61703;BMP280;47622;47.726;3.298;2024-03-22T03:24:27;99679.00;;;8.73
61703;BMP280;47622;47.726;3.298;2024-03-22T03:26:53;99681.81;;;8.76
61703;BMP280;47622;47.726;3.298;2024-03-22T03:29:18;99684.41;;;8.76
61703;BMP280;47622;47.726;3.298;2024-03-22T03:31:44;99689.38;;;8.78
61703;BMP280;47622;47.726;3.298;2024-03-22T03:34:09;99670.63;;;8.66
61703;BMP280;47622;47.726;3.298;2024-03-22T03:36:35;99683.09;;;8.84
61703;BMP280;47622;47.726;3.298;2024-03-22T03:39:01;99667.88;;;8.91
61703;BMP280;47622;47.726;3.298;2024-03-22T03:41:26;99693.97;;;9.01
61703;BMP280;47622;47.726;3.298;2024-03-22T03:43:53;99693.50;;;8.94
61703;BMP280;47622;47.726;3.298;2024-03-22T03:46:18;99681.03;;;8.76
61703;BMP280;47622;47.726;3.298;2024-03-22T03:48:44;99683.09;;;8.84
61703;BMP280;47622;47.726;3.298;2024-03-22T03:51:09;99663.34;;;8.63
61703;BMP280;47622;47.726;3.298;2024-03-22T03:53:35;99675.34;;;8.69
61703;BMP280;47622;47.726;3.298;2024-03-22T03:56:00;99677.72;;;8.60
61703;BMP280;47622;47.726;3.298;2024-03-22T03:58:26;99660.28;;;8.50
61703;BMP280;47622;47.726;3.298;2024-03-22T04:00:52;99662.88;;;8.45
61703;BMP280;47622;47.726;3.298;2024-03-22T04:03:17;99647.84;;;8.27
61703;BMP280;47622;47.726;3.298;2024-03-22T04:05:43;99674.44;;;8.39
61703;BMP280;47622;47.726;3.298;2024-03-22T04:08:08;99674.22;;;8.31
61703;BMP280;47622;47.726;3.298;2024-03-22T04:10:34;99657.75;;;8.30
61703;BMP280;47622;47.726;3.298;2024-03-22T04:13:00;99669.25;;;8.34
61703;BMP280;47622;47.726;3.298;2024-03-22T04:15:25;99667.69;;;8.33
61703;BMP280;47622;47.726;3.298;2024-03-22T04:17:51;99661.41;;;8.29
61703;BMP280;47622;47.726;3.298;2024-03-22T04:20:16;99646.81;;;8.23
61703;BMP280;47622;47.726;3.298;2024-03-22T04:22:42;99655.75;;;8.12
61703;BMP280;47622;47.726;3.298;2024-03-22T04:25:07;99657.31;;;8.13
61703;BMP280;47622;47.726;3.298;2024-03-22T04:27:36;99654.47;;;8.04
61703;BMP280;47622;47.726;3.298;2024-03-22T04:30:02;99652.13;;;8.03
61703;BMP280;47622;47.726;3.298;2024-03-22T04:32:28;99663.59;;;8.07
61703;BMP280;47622;47.726;3.298;2024-03-22T04:34:53;99665.19;;;7.97
61703;BMP280;47622;47.726;3.298;2024-03-22T04:37:20;99666.47;;;8.05
61703;BMP280;47622;47.726;3.298;2024-03-22T04:39:46;99660.72;;;8.03
61703;BMP280;47622;47.726;3.298;2024-03-22T04:42:12;99658.63;;;8.10
61703;BMP280;47622;47.726;3.298;2024-03-22T04:44:37;99646.13;;;7.97
61703;BMP280;47622;47.726;3.298;2024-03-22T04:47:03;99647.44;;;7.99
61703;BMP280;47622;47.726;3.298;2024-03-22T04:49:28;99628.19;;;7.75
61703;BMP280;47622;47.726;3.298;2024-03-22T04:51:54;99641.47;;;7.89
61703;BMP280;47622;47.726;3.298;2024-03-22T04:54:19;99643.31;;;7.83
61703;BMP280;47622;47.726;3.298;2024-03-22T04:56:45;99650.88;;;7.90
61703;BMP280;47622;47.726;3.298;2024-03-22T04:59:11;99639.09;;;7.87
61703;BMP280;47622;47.726;3.298;2024-03-22T05:01:36;99619.88;;;7.68
61703;BMP280;47622;47.726;3.298;2024-03-22T05:04:03;99622.19;;;7.75
61703;BMP280;47622;47.726;3.298;2024-03-22T05:06:29;99638.31;;;7.82
61703;BMP280;47622;47.726;3.298;2024-03-22T05:08:55;99640.94;;;7.87
61703;BMP280;47622;47.726;3.298;2024-03-22T05:11:20;99596.88;;;7.60
61703;BMP280;47622;47.726;3.298;2024-03-22T05:13:46;99598.50;;;7.56
61703;BMP280;47622;47.726;3.298;2024-03-22T05:16:12;99619.88;;;7.68
61703;BMP280;47622;47.726;3.298;2024-03-22T05:18:37;99599.78;;;7.53
61703;BMP280;47622;47.726;3.298;2024-03-22T05:21:03;99605.50;;;7.65
61703;BMP280;47622;47.726;3.298;2024-03-22T05:23:29;99631.88;;;7.69
61703;BMP280;47622;47.726;3.298;2024-03-22T05:25:54;99626.63;;;7.59
61703;BMP280;47622;47.726;3.298;2024-03-22T05:28:20;99613.09;;;7.52
61703;BMP280;47622;47.726;3.298;2024-03-22T05:30:47;99626.38;;;7.65
61703;BMP280;47622;47.726;3.298;2024-03-22T05:33:12;99609.19;;;7.49
61703;BMP280;47622;47.726;3.298;2024-03-22T05:35:38;99619.31;;;7.61
61703;BMP280;47622;47.726;3.298;2024-03-22T05:38:03;99622.47;;;7.63
61703;BMP280;47622;47.726;3.298;2024-03-22T05:40:29;99611.75;;;7.59
61703;BMP280;47622;47.726;3.298;2024-03-22T05:42:55;99605.25;;;7.62
61703;BMP280;47622;47.726;3.298;2024-03-22T05:45:21;99602.66;;;7.57
61703;BMP280;47622;47.726;3.298;2024-03-22T05:47:47;99585.97;;;7.37
61703;BMP280;47622;47.726;3.298;2024-03-22T05:50:12;99569.28;;;7.23
61703;BMP280;47622;47.726;3.298;2024-03-22T05:52:39;99600.09;;;7.31
61703;BMP280;47622;47.726;3.298;2024-03-22T05:55:05;99590.19;;;7.33
61703;BMP280;47622;47.726;3.298;2024-03-22T05:57:31;99582.63;;;7.27
61703;BMP280;47622;47.726;3.298;2024-03-22T05:59:57;99613.13;;;7.41
61703;BMP280;47622;47.726;3.298;2024-03-22T06:02:22;99595.91;;;7.35
61703;BMP280;47622;47.726;3.298;2024-03-22T06:04:48;99607.38;;;7.45
61703;BMP280;47622;47.726;3.298;2024-03-22T06:07:14;99608.41;;;7.49
61703;BMP280;47622;47.726;3.298;2024-03-22T06:09:41;99584.41;;;7.36
61703;BMP280;47622;47.726;3.298;2024-03-22T06:12:14;99621.91;;;7.71
61703;BMP280;47622;47.726;3.298;2024-03-22T06:14:41;99617.44;;;7.87
61703;BMP280;47622;47.726;3.298;2024-03-22T06:17:09;99612.50;;;7.90
61703;BMP280;47622;47.726;3.298;2024-03-22T06:19:35;99603.03;;;8.05
61703;BMP280;47622;47.726;3.298;2024-03-22T06:22:01;99621.31;;;8.05
61703;BMP280;47622;47.726;3.298;2024-03-22T06:24:27;99603.09;;;7.89
61703;BMP280;47622;47.726;3.298;2024-03-22T06:26:53;99621.75;;;8.17
61703;BMP280;47622;47.726;3.298;2024-03-22T06:29:19;99614.69;;;8.22
61703;BMP280;47622;47.726;3.298;2024-03-22T06:31:44;99608.91;;;8.31
61703;BMP280;47622;47.726;3.298;2024-03-22T06:34:10;99627.88;;;8.51
61703;BMP280;47622;47.726;3.298;2024-03-22T06:36:35;99626.09;;;8.81
61703;BMP280;47622;47.726;3.298;2024-03-22T06:39:01;99605.44;;;8.84
61703;BMP280;47622;47.726;3.298;2024-03-22T06:41:30;99611.41;;;8.90
61703;BMP280;47622;47.726;3.298;2024-03-22T06:43:55;99627.03;;;8.95
61703;BMP280;47622;47.726;3.298;2024-03-22T06:46:21;99598.91;;;8.82
61703;BMP280;47622;47.726;3.298;2024-03-22T06:48:47;99606.63;;;8.97
61703;BMP280;47622;47.726;3.298;2024-03-22T06:51:13;99628.34;;;9.27
61703;BMP280;47622;47.726;3.298;2024-03-22T06:53:39;99627.59;;;9.50
61703;BMP280;47622;47.726;3.298;2024-03-22T06:56:05;99622.25;;;9.60
61703;BMP280;47622;47.726;3.298;2024-03-22T06:58:30;99623.69;;;9.71
61703;BMP280;47622;47.726;3.298;2024-03-22T07:00:56;99629.94;;;9.75
61703;BMP280;47622;47.726;3.298;2024-03-22T07:03:22;99630.06;;;9.65
61703;BMP280;47622;47.726;3.298;2024-03-22T07:05:47;99596.28;;;9.40
61703;BMP280;47622;47.726;3.298;2024-03-22T07:08:13;99605.81;;;9.55
61703;BMP280;47622;47.726;3.298;2024-03-22T07:10:39;99612.44;;;9.71
61703;BMP280;47622;47.726;3.298;2024-03-22T07:13:05;99616.97;;;10.08
61703;BMP280;47622;47.726;3.298;2024-03-22T07:15:31;99621.72;;;10.62
61703;BMP280;47622;47.726;3.298;2024-03-22T07:17:57;99622.19;;;10.97
61703;BMP280;47622;47.726;3.298;2024-03-22T07:20:23;99618.66;;;11.62
61703;BMP280;47622;47.726;3.298;2024-03-22T07:22:49;99631.56;;;12.58
61703;BMP280;47622;47.726;3.298;2024-03-22T07:25:14;99604.13;;;14.03
61703;BMP280;47622;47.726;3.298;2024-03-22T07:27:40;99626.44;;;15.34
61703;BMP280;47622;47.726;3.298;2024-03-22T07:30:06;99624.56;;;15.05
61703;BMP280;47622;47.726;3.298;2024-03-22T07:32:31;99609.69;;;14.92
61703;BMP280;47622;47.726;3.298;2024-03-22T07:34:57;99626.09;;;16.52
61703;BMP280;47622;47.726;3.298;2024-03-22T07:37:23;99626.59;;;18.23
61703;BMP280;47622;47.726;3.298;2024-03-22T07:39:48;99617.09;;;19.39
61703;BMP280;47622;47.726;3.298;2024-03-22T07:42:14;99623.72;;;20.07
61703;BMP280;47622;47.726;3.298;2024-03-22T07:44:40;99593.63;;;20.29
61703;BMP280;47622;47.726;3.298;2024-03-22T07:47:06;99625.16;;;18.73
61703;BMP280;47622;47.726;3.298;2024-03-22T07:49:32;99614.66;;;18.17
61703;BMP280;47622;47.726;3.298;2024-03-22T07:51:59;99625.56;;;18.43
61703;BMP280;47622;47.726;3.298;2024-03-22T07:54:25;99603.72;;;18.50
61703;BMP280;47622;47.726;3.298;2024-03-22T07:56:50;99629.31;;;18.11
61703;BMP280;47622;47.726;3.298;2024-03-22T07:59:16;99624.00;;;18.11
61703;BMP280;47622;47.726;3.298;2024-03-22T08:01:41;99623.00;;;17.47
61703;BMP280;47622;47.726;3.298;2024-03-22T08:04:07;99595.97;;;17.98
61703;BMP280;47622;47.726;3.298;2024-03-22T08:06:34;99624.91;;;17.75
61703;BMP280;47622;47.726;3.298;2024-03-22T08:08:59;99615.47;;;18.49
61703;BMP280;47622;47.726;3.298;2024-03-22T08:11:26;99623.91;;;19.56
61703;BMP280;47622;47.726;3.298;2024-03-22T08:13:52;99607.31;;;19.85
61703;BMP280;47622;47.726;3.298;2024-03-22T08:16:17;99637.53;;;20.88
61703;BMP280;47622;47.726;3.298;2024-03-22T08:18:45;99635.16;;;21.09
61703;BMP280;47622;47.726;3.298;2024-03-22T08:21:10;99622.56;;;21.36
61703;BMP280;47622;47.726;3.298;2024-03-22T08:23:36;99629.03;;;21.72
61703;BMP280;47622;47.726;3.298;2024-03-22T08:26:01;99633.16;;;21.66
61703;BMP280;47622;47.726;3.298;2024-03-22T08:28:27;99628.84;;;21.54
61703;BMP280;47622;47.726;3.298;2024-03-22T08:30:53;99616.97;;;21.85
61703;BMP280;47622;47.726;3.298;2024-03-22T08:33:19;99633.84;;;22.40
61703;BMP280;47622;47.726;3.298;2024-03-22T08:35:44;99610.84;;;22.91
61703;BMP280;47622;47.726;3.298;2024-03-22T08:38:10;99598.59;;;22.86
61703;BMP280;47622;47.726;3.298;2024-03-22T08:40:39;99590.72;;;24.32
61703;BMP280;47622;47.726;3.298;2024-03-22T08:43:07;99604.16;;;24.10
61703;BMP280;47622;47.726;3.298;2024-03-22T08:45:33;99610.69;;;24.24
61703;BMP280;47622;47.726;3.298;2024-03-22T08:47:59;99614.06;;;24.63
61703;BMP280;47622;47.726;3.298;2024-03-22T08:50:24;99599.31;;;25.00
61703;BMP280;47622;47.726;3.298;2024-03-22T08:52:50;99602.59;;;24.59
61703;BMP280;47622;47.726;3.298;2024-03-22T08:55:16;99607.06;;;24.80
61703;BMP280;47622;47.726;3.298;2024-03-22T08:57:42;99597.94;;;24.63
61703;BMP280;47622;47.726;3.298;2024-03-22T09:00:09;99611.19;;;25.64
61703;BMP280;47622;47.726;3.298;2024-03-22T09:02:36;99605.31;;;26.21
61703;BMP280;47622;47.726;3.298;2024-03-22T09:05:03;99611.06;;;26.23
61703;BMP280;47622;47.726;3.298;2024-03-22T09:07:29;99591.09;;;26.58
61703;BMP280;47622;47.726;3.298;2024-03-22T09:09:54;99597.66;;;27.38
61703;BMP280;47622;47.726;3.298;2024-03-22T09:12:20;99605.66;;;27.68
61703;BMP280;47622;47.726;3.298;2024-03-22T09:14:45;99589.66;;;28.40
61703;BMP280;47622;47.726;3.298;2024-03-22T09:17:11;99594.78;;;29.23
61703;BMP280;47622;47.726;3.298;2024-03-22T09:19:37;99592.97;;;30.35
61703;BMP280;47622;47.726;3.298;2024-03-22T09:22:02;99611.13;;;29.80
61703;BMP280;47622;47.726;3.298;2024-03-22T09:24:28;99584.47;;;28.49
61703;BMP280;47622;47.726;3.298;2024-03-22T09:26:54;99568.84;;;28.41
61703;BMP280;47622;47.726;3.298;2024-03-22T09:29:19;99581.00;;;29.17
61703;BMP280;47622;47.726;3.298;2024-03-22T09:31:45;99580.22;;;29.65
61703;BMP280;47622;47.726;3.298;2024-03-22T09:34:12;99578.97;;;28.72
61703;BMP280;47622;47.726;3.298;2024-03-22T09:36:37;99578.81;;;28.80
61703;BMP280;47622;47.726;3.298;2024-03-22T09:39:04;99554.09;;;28.06
61703;BMP280;47622;47.726;3.298;2024-03-22T09:41:31;99559.66;;;27.98
61703;BMP280;47622;47.726;3.298;2024-03-22T09:43:58;99569.16;;;27.83
61703;BMP280;47622;47.726;3.298;2024-03-22T09:46:27;99569.38;;;27.73
61703;BMP280;47622;47.726;3.298;2024-03-22T09:48:54;99551.81;;;27.84
61703;BMP280;47622;47.726;3.298;2024-03-22T09:51:20;99552.47;;;28.67
61703;BMP280;47622;47.726;3.298;2024-03-22T09:53:48;99560.59;;;29.90
61703;BMP280;47622;47.726;3.298;2024-03-22T09:56:15;99555.81;;;29.52
61703;BMP280;47622;47.726;3.298;2024-03-22T09:58:41;99543.72;;;29.86
61703;BMP280;47622;47.726;3.298;2024-03-22T10:01:08;99519.19;;;30.69
61703;BMP280;47622;47.726;3.298;2024-03-22T10:03:33;99535.28;;;31.10
61703;BMP280;47622;47.726;3.298;2024-03-22T10:05:59;99518.09;;;30.03
61703;BMP280;47622;47.726;3.298;2024-03-22T10:08:26;99537.22;;;29.96
61703;BMP280;47622;47.726;3.298;2024-03-22T10:10:51;99531.31;;;29.43
61703;BMP280;47622;47.726;3.298;2024-03-22T10:13:17;99523.91;;;28.50
61703;BMP280;47622;47.726;3.298;2024-03-22T10:15:42;99516.31;;;29.84
61703;BMP280;47622;47.726;3.298;2024-03-22T10:18:09;99511.06;;;30.69
61703;BMP280;47622;47.726;3.298;2024-03-22T10:20:35;99519.00;;;30.25
61703;BMP280;47622;47.726;3.298;2024-03-22T10:23:01;99506.75;;;30.33
61703;BMP280;47622;47.726;3.298;2024-03-22T10:25:27;99519.09;;;29.68
61703;BMP280;47622;47.726;3.298;2024-03-22T10:27:56;99518.50;;;29.31
61703;BMP280;47622;47.726;3.298;2024-03-22T10:30:23;99519.59;;;28.69
61703;BMP280;47622;47.726;3.298;2024-03-22T10:32:51;99509.53;;;29.34
61703;BMP280;47622;47.726;3.298;2024-03-22T10:35:17;99502.03;;;29.42
61703;BMP280;47622;47.726;3.298;2024-03-22T10:37:43;99483.59;;;28.59
61703;BMP280;47622;47.726;3.298;2024-03-22T10:40:10;99475.13;;;29.22
61703;BMP280;47622;47.726;3.298;2024-03-22T10:42:40;99481.53;;;28.96
61703;BMP280;47622;47.726;3.298;2024-03-22T10:45:09;99464.06;;;28.19
61703;BMP280;47622;47.726;3.298;2024-03-22T10:47:37;99474.66;;;28.78
61703;BMP280;47622;47.726;3.298;2024-03-22T10:50:07;99482.31;;;28.80
61703;BMP280;47622;47.726;3.298;2024-03-22T10:52:50;99470.75;;;28.47
61703;BMP280;47622;47.726;3.298;2024-03-22T10:55:38;99456.81;;;27.57
61703;BMP280;47622;47.726;3.298;2024-03-22T10:58:04;99442.03;;;27.45
61703;BMP280;47622;47.726;3.298;2024-03-22T11:00:35;99436.25;;;27.00
61703;BMP280;47622;47.726;3.298;2024-03-22T11:03:02;99429.22;;;27.69
61703;BMP280;47622;47.726;3.298;2024-03-22T11:05:28;99443.84;;;26.82
61703;BMP280;47622;47.726;3.298;2024-03-22T11:08:04;99428.97;;;25.90
61703;BMP280;47622;47.726;3.298;2024-03-22T11:10:30;99424.03;;;26.15
61703;BMP280;47622;47.726;3.298;2024-03-22T11:13:03;99425.38;;;26.00
61703;BMP280;47622;47.726;3.298;2024-03-22T11:15:29;99410.56;;;25.85
61703;BMP280;47622;47.726;3.298;2024-03-22T11:17:56;99419.28;;;26.26
61703;BMP280;47622;47.726;3.298;2024-03-22T11:20:21;99405.03;;;26.79
61703;BMP280;47622;47.726;3.298;2024-03-22T11:22:47;99407.56;;;26.40
61703;BMP280;47622;47.726;3.298;2024-03-22T11:25:13;99417.00;;;26.52
61703;BMP280;47622;47.726;3.298;2024-03-22T11:27:38;99409.47;;;25.82
61703;BMP280;47622;47.726;3.298;2024-03-22T11:30:04;99408.53;;;25.96
61703;BMP280;47622;47.726;3.298;2024-03-22T11:32:30;99402.09;;;25.90
61703;BMP280;47622;47.726;3.298;2024-03-22T11:34:56;99400.16;;;25.15
61703;BMP280;47622;47.726;3.298;2024-03-22T11:37:22;99417.88;;;25.50
61703;BMP280;47622;47.726;3.298;2024-03-22T11:39:48;99402.47;;;25.54
61703;BMP280;47622;47.726;3.298;2024-03-22T11:42:15;99410.50;;;26.22
61703;BMP280;47622;47.726;3.298;2024-03-22T11:44:42;99403.16;;;26.26
61703;BMP280;47622;47.726;3.298;2024-03-22T11:47:08;99384.09;;;26.14
61703;BMP280;47622;47.726;3.298;2024-03-22T11:49:34;99371.78;;;25.86
61703;BMP280;47622;47.726;3.298;2024-03-22T11:52:00;99381.38;;;25.87
61703;BMP280;47622;47.726;3.298;2024-03-22T11:54:26;99359.38;;;25.27
61703;BMP280;47622;47.726;3.298;2024-03-22T11:56:55;99381.88;;;25.44
61703;BMP280;47622;47.726;3.298;2024-03-22T11:59:22;99357.22;;;24.67
61703;BMP280;47622;47.726;3.298;2024-03-22T12:01:47;99366.59;;;24.45
61703;BMP280;47622;47.726;3.298;2024-03-22T12:04:13;99357.91;;;24.19
61703;BMP280;47622;47.726;3.298;2024-03-22T12:06:43;99362.09;;;25.24
61703;BMP280;47622;47.726;3.298;2024-03-22T12:09:09;99335.78;;;25.49
61703;BMP280;47622;47.726;3.298;2024-03-22T12:11:37;99358.91;;;26.00
61703;BMP280;47622;47.726;3.298;2024-03-22T12:14:03;99346.72;;;25.28
61703;BMP280;47622;47.726;3.298;2024-03-22T12:16:28;99336.69;;;24.94
61703;BMP280;47622;47.726;3.298;2024-03-22T12:18:54;99324.84;;;24.85
61703;BMP280;47622;47.726;3.298;2024-03-22T12:21:19;99332.88;;;24.40
61703;BMP280;47622;47.726;3.298;2024-03-22T12:23:45;99324.28;;;24.67
61703;BMP280;47622;47.726;3.298;2024-03-22T12:26:10;99328.41;;;24.19
61703;BMP280;47622;47.726;3.298;2024-03-22T12:28:36;99336.81;;;24.21
61703;BMP280;47622;47.726;3.298;2024-03-22T12:31:01;99321.47;;;24.26
61703;BMP280;47622;47.726;3.298;2024-03-22T12:33:27;99317.41;;;24.62
61703;BMP280;47622;47.726;3.298;2024-03-22T12:35:52;99317.34;;;24.69
61703;BMP280;47622;47.726;3.298;2024-03-22T12:38:18;99310.25;;;24.45
61703;BMP280;47622;47.726;3.298;2024-03-22T12:40:44;99310.78;;;24.77
61703;BMP280;47622;47.726;3.298;2024-03-22T12:43:10;99306.03;;;24.44
61703;BMP280;47622;47.726;3.298;2024-03-22T12:45:37;99295.69;;;23.76
61703;BMP280;47622;47.726;3.298;2024-03-22T12:48:02;99282.59;;;23.89
61703;BMP280;47622;47.726;3.298;2024-03-22T12:50:29;99279.84;;;24.58
61703;BMP280;47622;47.726;3.298;2024-03-22T12:52:55;99274.38;;;24.73
61703;BMP280;47622;47.726;3.298;2024-03-22T12:55:21;99266.06;;;24.60
61703;BMP280;47622;47.726;3.298;2024-03-22T12:57:47;99280.91;;;24.24
61703;BMP280;47622;47.726;3.298;2024-03-22T13:00:13;99285.94;;;24.70
61703;BMP280;47622;47.726;3.298;2024-03-22T13:02:40;99273.91;;;24.37
61703;BMP280;47622;47.726;3.298;2024-03-22T13:05:06;99274.00;;;24.23
61703;BMP280;47622;47.726;3.298;2024-03-22T13:07:32;99261.31;;;24.27
61703;BMP280;47622;47.726;3.298;2024-03-22T13:09:57;99262.72;;;24.49
61703;BMP280;47622;47.726;3.298;2024-03-22T13:12:25;99247.53;;;23.62
61703;BMP280;47622;47.726;3.298;2024-03-22T13:14:51;99254.91;;;24.17
61703;BMP280;47622;47.726;3.298;2024-03-22T13:17:17;99247.44;;;23.87
61703;BMP280;47622;47.726;3.298;2024-03-22T13:19:42;99248.66;;;24.34
61703;BMP280;47622;47.726;3.298;2024-03-22T13:22:08;99244.16;;;24.20
61703;BMP280;47622;47.726;3.298;2024-03-22T13:24:34;99258.28;;;23.59
61703;BMP280;47622;47.726;3.298;2024-03-22T13:27:00;99222.81;;;23.19
61703;BMP280;47622;47.726;3.298;2024-03-22T13:29:28;99220.16;;;24.03
61703;BMP280;47622;47.726;3.298;2024-03-22T13:31:53;99209.31;;;23.55
61703;BMP280;47622;47.726;3.298;2024-03-22T13:34:19;99224.56;;;23.65
61703;BMP280;47622;47.726;3.298;2024-03-22T13:36:44;99216.38;;;23.02
61703;BMP280;47622;47.726;3.298;2024-03-22T13:39:10;99231.31;;;22.43
61703;BMP280;47622;47.726;3.298;2024-03-22T13:41:35;99214.84;;;21.84
61703;BMP280;47622;47.726;3.298;2024-03-22T13:44:01;99217.94;;;22.29
61703;BMP280;47622;47.726;3.298;2024-03-22T13:46:31;99213.38;;;22.33
61703;BMP280;47622;47.726;3.298;2024-03-22T13:48:56;99208.38;;;22.88
61703;BMP280;47622;47.726;3.298;2024-03-22T13:51:22;99208.03;;;22.75
61703;BMP280;47622;47.726;3.298;2024-03-22T13:53:49;99204.56;;;22.36
61703;BMP280;47622;47.726;3.298;2024-03-22T13:56:14;99199.84;;;21.62
61703;BMP280;47622;47.726;3.298;2024-03-22T13:58:39;99184.72;;;21.04
61703;BMP280;47622;47.726;3.298;2024-03-22T14:01:05;99194.19;;;21.74
61703;BMP280;47622;47.726;3.298;2024-03-22T14:03:30;99188.84;;;21.88
61703;BMP280;47622;47.726;3.298;2024-03-22T14:05:55;99178.91;;;21.78
61703;BMP280;47622;47.726;3.298;2024-03-22T14:08:21;99185.88;;;22.08